sensor_id;sensor_type;location;lat;lon;timestamp;pressure;altitude;pressure_sealevel;temperature;humidity
14295;BME280;7231;59.370;18.016;2023-04-28T00:02:03;100927.16;;;2.94;92.84
14295;BME280;7231;59.370;18.016;2023-04-28T00:04:31;100920.09;;;2.91;93.17
14295;BME280;7231;59.370;18.016;2023-04-28T00:07:01;100921.72;;;2.89;92.78
14295;BME280;7231;59.370;18.016;2023-04-28T00:09:29;100902.84;;;2.77;92.41
14295;BME280;7231;59.370;18.016;2023-04-28T00:11:57;100918.66;;;2.82;92.90
14295;BME280;7231;59.370;18.016;2023-04-28T00:14:25;100929.19;;;2.85;93.35
14295;BME280;7231;59.370;18.016;2023-04-28T00:16:53;100929.09;;;2.83;93.37
14295;BME280;7231;59.370;18.016;2023-04-28T00:19:23;100928.31;;;2.84;93.21
14295;BME280;7231;59.370;18.016;2023-04-28T00:21:51;100920.44;;;2.83;92.99
14295;BME280;7231;59.370;18.016;2023-04-28T00:24:20;100927.22;;;2.81;93.14
14295;BME280;7231;59.370;18.016;2023-04-28T00:26:48;100929.72;;;2.79;92.89
14295;BME280;7231;59.370;18.016;2023-04-28T00:29:17;100916.13;;;2.69;93.36
14295;BME280;7231;59.370;18.016;2023-04-28T00:31:44;100915.94;;;2.66;93.82
14295;BME280;7231;59.370;18.016;2023-04-28T00:34:12;100930.88;;;2.70;94.17
14295;BME280;7231;59.370;18.016;2023-04-28T00:36:41;100931.38;;;2.64;94.12
14295;BME280;7231;59.370;18.016;2023-04-28T00:39:09;100933.78;;;2.61;94.19
14295;BME280;7231;59.370;18.016;2023-04-28T00:41:38;100940.59;;;2.59;94.42
14295;BME280;7231;59.370;18.016;2023-04-28T00:44:06;100945.59;;;2.56;94.15
14295;BME280;7231;59.370;18.016;2023-04-28T00:46:34;100944.59;;;2.54;93.89
14295;BME280;7231;59.370;18.016;2023-04-28T00:49:03;100944.41;;;2.51;94.09
14295;BME280;7231;59.370;18.016;2023-04-28T00:51:31;100949.41;;;2.48;93.94
14295;BME280;7231;59.370;18.016;2023-04-28T00:53:59;100899.25;;;2.18;94.18
14295;BME280;7231;59.370;18.016;2023-04-28T00:56:28;100930.44;;;2.34;94.77
14295;BME280;7231;59.370;18.016;2023-04-28T00:58:58;100953.31;;;2.41;94.77
14295;BME280;7231;59.370;18.016;2023-04-28T01:01:26;100946.47;;;2.28;95.24
14295;BME280;7231;59.370;18.016;2023-04-28T01:03:54;100956.50;;;2.37;95.70
14295;BME280;7231;59.370;18.016;2023-04-28T01:06:22;100949.06;;;2.28;95.24
14295;BME280;7231;59.370;18.016;2023-04-28T01:08:50;100966.56;;;2.33;96.01
14295;BME280;7231;59.370;18.016;2023-04-28T01:11:19;100956.13;;;2.31;95.76
14295;BME280;7231;59.370;18.016;2023-04-28T01:13:46;100938.13;;;2.19;95.99
14295;BME280;7231;59.370;18.016;2023-04-28T01:16:16;100937.25;;;2.19;95.63
14295;BME280;7231;59.370;18.016;2023-04-28T01:18:46;100880.72;;;1.84;95.97
14295;BME280;7231;59.370;18.016;2023-04-28T01:21:14;100952.84;;;2.20;95.54
14295;BME280;7231;59.370;18.016;2023-04-28T01:23:55;100778.44;;;1.20;95.97
14295;BME280;7231;59.370;18.016;2023-04-28T01:26:24;100950.97;;;2.18;96.19
14295;BME280;7231;59.370;18.016;2023-04-28T01:28:52;100940.34;;;2.00;96.27
14295;BME280;7231;59.370;18.016;2023-04-28T01:31:20;100948.50;;;2.06;96.63
14295;BME280;7231;59.370;18.016;2023-04-28T01:33:48;100944.72;;;2.01;96.57
14295;BME280;7231;59.370;18.016;2023-04-28T01:36:16;100937.38;;;1.94;96.79
14295;BME280;7231;59.370;18.016;2023-04-28T01:38:44;100878.16;;;1.57;96.58
14295;BME280;7231;59.370;18.016;2023-04-28T01:41:13;100958.38;;;1.99;96.72
14295;BME280;7231;59.370;18.016;2023-04-28T01:43:41;100965.41;;;2.01;97.39
14295;BME280;7231;59.370;18.016;2023-04-28T01:46:10;100883.22;;;1.56;97.47
14295;BME280;7231;59.370;18.016;2023-04-28T01:48:38;100965.22;;;1.98;96.83
14295;BME280;7231;59.370;18.016;2023-04-28T01:51:06;100968.59;;;1.97;97.26
14295;BME280;7231;59.370;18.016;2023-04-28T01:53:34;100966.81;;;1.96;97.84
14295;BME280;7231;59.370;18.016;2023-04-28T01:56:02;100963.34;;;1.95;97.41
14295;BME280;7231;59.370;18.016;2023-04-28T01:58:31;100964.94;;;1.93;98.48
14295;BME280;7231;59.370;18.016;2023-04-28T02:00:59;100943.47;;;1.81;97.92
14295;BME280;7231;59.370;18.016;2023-04-28T02:03:27;100964.84;;;1.92;98.70
14295;BME280;7231;59.370;18.016;2023-04-28T02:05:55;100967.41;;;1.92;98.58
14295;BME280;7231;59.370;18.016;2023-04-28T02:08:23;100945.25;;;1.82;98.53
14295;BME280;7231;59.370;18.016;2023-04-28T02:10:51;100972.59;;;1.92;98.96
14295;BME280;7231;59.370;18.016;2023-04-28T02:13:19;100954.19;;;1.87;99.05
14295;BME280;7231;59.370;18.016;2023-04-28T02:15:48;100974.38;;;1.93;99.32
14295;BME280;7231;59.370;18.016;2023-04-28T02:18:16;100935.00;;;1.71;99.32
14295;BME280;7231;59.370;18.016;2023-04-28T02:20:44;100970.69;;;1.89;98.95
14295;BME280;7231;59.370;18.016;2023-04-28T02:23:12;100974.09;;;1.88;98.96
14295;BME280;7231;59.370;18.016;2023-04-28T02:25:40;100978.34;;;1.88;98.69
14295;BME280;7231;59.370;18.016;2023-04-28T02:28:08;100962.16;;;1.77;98.72
14295;BME280;7231;59.370;18.016;2023-04-28T02:30:36;100965.44;;;1.75;98.75
14295;BME280;7231;59.370;18.016;2023-04-28T02:33:05;100982.34;;;1.83;98.63
14295;BME280;7231;59.370;18.016;2023-04-28T02:35:33;100984.13;;;1.84;99.04
14295;BME280;7231;59.370;18.016;2023-04-28T02:38:01;100988.41;;;1.83;99.03
14295;BME280;7231;59.370;18.016;2023-04-28T02:40:29;100964.53;;;1.74;99.90
14295;BME280;7231;59.370;18.016;2023-04-28T02:42:57;100969.91;;;1.77;99.62
14295;BME280;7231;59.370;18.016;2023-04-28T02:45:25;100985.03;;;1.84;99.88
14295;BME280;7231;59.370;18.016;2023-04-28T02:47:53;100983.34;;;1.85;99.84
14295;BME280;7231;59.370;18.016;2023-04-28T02:50:22;100996.16;;;1.97;99.99
14295;BME280;7231;59.370;18.016;2023-04-28T02:52:50;100989.59;;;2.02;100.00
14295;BME280;7231;59.370;18.016;2023-04-28T02:55:18;100979.25;;;2.02;99.49
14295;BME280;7231;59.370;18.016;2023-04-28T02:57:50;100969.59;;;1.99;99.66
14295;BME280;7231;59.370;18.016;2023-04-28T03:00:18;100990.88;;;2.08;99.25
14295;BME280;7231;59.370;18.016;2023-04-28T03:02:46;100989.09;;;2.07;99.61
14295;BME280;7231;59.370;18.016;2023-04-28T03:05:14;100990.09;;;2.09;99.14
14295;BME280;7231;59.370;18.016;2023-04-28T03:07:43;101006.88;;;2.16;99.10
14295;BME280;7231;59.370;18.016;2023-04-28T03:10:11;100996.84;;;2.20;99.66
14295;BME280;7231;59.370;18.016;2023-04-28T03:12:39;101003.09;;;2.24;99.65
14295;BME280;7231;59.370;18.016;2023-04-28T03:15:08;101000.81;;;2.28;98.99
14295;BME280;7231;59.370;18.016;2023-04-28T03:17:39;101002.88;;;2.34;99.42
14295;BME280;7231;59.370;18.016;2023-04-28T03:20:09;100987.88;;;2.28;98.83
14295;BME280;7231;59.370;18.016;2023-04-28T03:22:38;101005.84;;;2.40;98.80
14295;BME280;7231;59.370;18.016;2023-04-28T03:25:08;100984.56;;;2.31;98.68
14295;BME280;7231;59.370;18.016;2023-04-28T03:27:36;101009.81;;;2.48;98.89
14295;BME280;7231;59.370;18.016;2023-04-28T03:30:06;100997.16;;;2.53;98.68
14295;BME280;7231;59.370;18.016;2023-04-28T03:32:34;101006.13;;;2.58;97.96
14295;BME280;7231;59.370;18.016;2023-04-28T03:35:02;100989.81;;;2.46;98.30
14295;BME280;7231;59.370;18.016;2023-04-28T03:37:30;101006.28;;;2.61;97.83
14295;BME280;7231;59.370;18.016;2023-04-28T03:39:58;101009.84;;;2.63;97.86
14295;BME280;7231;59.370;18.016;2023-04-28T03:42:27;101010.03;;;2.66;97.71
14295;BME280;7231;59.370;18.016;2023-04-28T03:44:55;101011.91;;;2.69;97.09
14295;BME280;7231;59.370;18.016;2023-04-28T03:47:23;101014.78;;;2.73;97.49
14295;BME280;7231;59.370;18.016;2023-04-28T03:49:51;101000.88;;;2.71;97.02
14295;BME280;7231;59.370;18.016;2023-04-28T03:52:19;101016.97;;;2.80;96.65
14295;BME280;7231;59.370;18.016;2023-04-28T03:54:47;100993.63;;;2.66;96.63
14295;BME280;7231;59.370;18.016;2023-04-28T03:57:20;101022.53;;;2.86;96.43
14295;BME280;7231;59.370;18.016;2023-04-28T03:59:50;101018.03;;;2.84;96.50
14295;BME280;7231;59.370;18.016;2023-04-28T04:02:20;101003.31;;;2.83;96.29
14295;BME280;7231;59.370;18.016;2023-04-28T04:04:48;101004.41;;;2.86;96.21
14295;BME280;7231;59.370;18.016;2023-04-28T04:07:17;101034.63;;;3.01;96.29
14295;BME280;7231;59.370;18.016;2023-04-28T04:09:45;101016.03;;;2.93;96.12
14295;BME280;7231;59.370;18.016;2023-04-28T04:12:13;101031.41;;;3.05;95.62
14295;BME280;7231;59.370;18.016;2023-04-28T04:14:41;100898.50;;;2.34;95.94
14295;BME280;7231;59.370;18.016;2023-04-28T04:17:11;101032.78;;;3.13;95.71
14295;BME280;7231;59.370;18.016;2023-04-28T04:19:39;101031.97;;;3.14;95.45
14295;BME280;7231;59.370;18.016;2023-04-28T04:22:07;101029.47;;;3.15;95.41
14295;BME280;7231;59.370;18.016;2023-04-28T04:24:35;101027.88;;;3.17;95.47
14295;BME280;7231;59.370;18.016;2023-04-28T04:27:03;101029.75;;;3.20;95.41
14295;BME280;7231;59.370;18.016;2023-04-28T04:29:31;101033.41;;;3.23;95.27
14295;BME280;7231;59.370;18.016;2023-04-28T04:31:59;101040.66;;;3.29;94.97
14295;BME280;7231;59.370;18.016;2023-04-28T04:34:29;101035.94;;;3.37;95.30
14295;BME280;7231;59.370;18.016;2023-04-28T04:36:57;101037.13;;;3.42;94.99
14295;BME280;7231;59.370;18.016;2023-04-28T04:39:25;101018.34;;;3.31;95.04
14295;BME280;7231;59.370;18.016;2023-04-28T04:41:53;101049.81;;;3.52;94.39
14295;BME280;7231;59.370;18.016;2023-04-28T04:44:25;101024.16;;;3.42;94.37
14295;BME280;7231;59.370;18.016;2023-04-28T04:46:53;101017.53;;;3.47;94.43
14295;BME280;7231;59.370;18.016;2023-04-28T04:49:22;101037.03;;;3.55;94.62
14295;BME280;7231;59.370;18.016;2023-04-28T04:51:51;101033.72;;;3.57;94.52
14295;BME280;7231;59.370;18.016;2023-04-28T04:54:19;101053.50;;;3.70;93.97
14295;BME280;7231;59.370;18.016;2023-04-28T04:56:47;101045.91;;;3.73;93.90
14295;BME280;7231;59.370;18.016;2023-04-28T04:59:15;101051.97;;;3.74;93.50
14295;BME280;7231;59.370;18.016;2023-04-28T05:01:43;101056.53;;;3.78;93.70
14295;BME280;7231;59.370;18.016;2023-04-28T05:04:11;101046.69;;;3.87;93.66
14295;BME280;7231;59.370;18.016;2023-04-28T05:06:40;101060.66;;;3.89;93.28
14295;BME280;7231;59.370;18.016;2023-04-28T05:09:09;101065.66;;;3.86;92.98
14295;BME280;7231;59.370;18.016;2023-04-28T05:11:37;101057.88;;;3.86;93.03
14295;BME280;7231;59.370;18.016;2023-04-28T05:14:08;101060.56;;;3.87;92.70
14295;BME280;7231;59.370;18.016;2023-04-28T05:16:36;101073.34;;;3.84;92.60
14295;BME280;7231;59.370;18.016;2023-04-28T05:19:04;101074.59;;;3.91;92.30
14295;BME280;7231;59.370;18.016;2023-04-28T05:21:35;101041.78;;;3.77;92.06
14295;BME280;7231;59.370;18.016;2023-04-28T05:24:04;101073.72;;;3.90;91.92
14295;BME280;7231;59.370;18.016;2023-04-28T05:26:34;101077.19;;;3.91;91.93
14295;BME280;7231;59.370;18.016;2023-04-28T05:29:02;101071.22;;;3.92;92.02
14295;BME280;7231;59.370;18.016;2023-04-28T05:31:30;101072.19;;;3.94;91.99
14295;BME280;7231;59.370;18.016;2023-04-28T05:33:58;101072.47;;;3.99;91.99
14295;BME280;7231;59.370;18.016;2023-04-28T05:36:26;101080.25;;;3.99;91.63
14295;BME280;7231;59.370;18.016;2023-04-28T05:38:54;101075.13;;;4.00;91.76
14295;BME280;7231;59.370;18.016;2023-04-28T05:41:22;101075.31;;;4.03;91.67
14295;BME280;7231;59.370;18.016;2023-04-28T05:43:52;101084.16;;;4.07;91.43
14295;BME280;7231;59.370;18.016;2023-04-28T05:46:20;101079.59;;;4.03;90.92
14295;BME280;7231;59.370;18.016;2023-04-28T05:48:54;101090.88;;;4.03;91.16
14295;BME280;7231;59.370;18.016;2023-04-28T05:51:22;101089.38;;;4.07;91.42
14295;BME280;7231;59.370;18.016;2023-04-28T05:53:50;101089.44;;;4.08;91.15
14295;BME280;7231;59.370;18.016;2023-04-28T05:56:18;101092.31;;;4.13;90.75
14295;BME280;7231;59.370;18.016;2023-04-28T05:58:46;101088.28;;;4.03;90.99
14295;BME280;7231;59.370;18.016;2023-04-28T06:01:17;101084.97;;;4.06;90.75
14295;BME280;7231;59.370;18.016;2023-04-28T06:03:45;101088.91;;;4.14;91.18
14295;BME280;7231;59.370;18.016;2023-04-28T06:06:14;101067.72;;;4.06;90.79
14295;BME280;7231;59.370;18.016;2023-04-28T06:08:42;101045.63;;;3.98;90.96
14295;BME280;7231;59.370;18.016;2023-04-28T06:11:10;101097.13;;;4.36;91.11
14295;BME280;7231;59.370;18.016;2023-04-28T06:13:38;101083.88;;;4.32;90.78
14295;BME280;7231;59.370;18.016;2023-04-28T06:16:06;101095.47;;;4.53;90.80
14295;BME280;7231;59.370;18.016;2023-04-28T06:18:35;101106.03;;;4.56;90.05
14295;BME280;7231;59.370;18.016;2023-04-28T06:21:03;101089.75;;;4.44;89.40
14295;BME280;7231;59.370;18.016;2023-04-28T06:23:31;101098.34;;;4.43;88.53
14295;BME280;7231;59.370;18.016;2023-04-28T06:25:59;101066.00;;;4.21;88.96
14295;BME280;7231;59.370;18.016;2023-04-28T06:28:27;101104.69;;;4.48;89.53
14295;BME280;7231;59.370;18.016;2023-04-28T06:30:56;101110.03;;;4.66;89.80
14295;BME280;7231;59.370;18.016;2023-04-28T06:33:25;101133.88;;;4.89;89.79
14295;BME280;7231;59.370;18.016;2023-04-28T06:35:54;101126.75;;;5.02;88.72
14295;BME280;7231;59.370;18.016;2023-04-28T06:38:22;101116.16;;;4.82;88.46
14295;BME280;7231;59.370;18.016;2023-04-28T06:40:50;101125.09;;;4.87;88.49
14295;BME280;7231;59.370;18.016;2023-04-28T06:43:20;101119.56;;;4.81;88.37
14295;BME280;7231;59.370;18.016;2023-04-28T06:45:48;101134.63;;;5.03;88.15
14295;BME280;7231;59.370;18.016;2023-04-28T06:48:16;101109.13;;;4.96;87.65
14295;BME280;7231;59.370;18.016;2023-04-28T06:50:44;101116.53;;;5.05;87.39
14295;BME280;7231;59.370;18.016;2023-04-28T06:53:13;101140.88;;;5.23;87.20
14295;BME280;7231;59.370;18.016;2023-04-28T06:55:42;101111.72;;;4.96;86.77
14295;BME280;7231;59.370;18.016;2023-04-28T06:58:10;101153.94;;;4.92;85.62
14295;BME280;7231;59.370;18.016;2023-04-28T07:00:38;101153.38;;;4.67;86.22
14295;BME280;7231;59.370;18.016;2023-04-28T07:03:06;101150.25;;;4.57;86.64
14295;BME280;7231;59.370;18.016;2023-04-28T07:05:35;101139.34;;;4.48;86.94
14295;BME280;7231;59.370;18.016;2023-04-28T07:08:03;101155.38;;;4.56;86.84
14295;BME280;7231;59.370;18.016;2023-04-28T07:10:33;101151.84;;;4.70;86.96
14295;BME280;7231;59.370;18.016;2023-04-28T07:13:00;101156.22;;;4.71;86.25
14295;BME280;7231;59.370;18.016;2023-04-28T07:15:28;101153.56;;;4.70;86.60
14295;BME280;7231;59.370;18.016;2023-04-28T07:17:57;101154.41;;;4.85;86.74
14295;BME280;7231;59.370;18.016;2023-04-28T07:20:25;101164.72;;;4.83;85.90
14295;BME280;7231;59.370;18.016;2023-04-28T07:22:53;101159.19;;;4.77;86.40
14295;BME280;7231;59.370;18.016;2023-04-28T07:25:21;101159.06;;;4.91;87.05
14295;BME280;7231;59.370;18.016;2023-04-28T07:27:50;101156.16;;;5.33;89.14
14295;BME280;7231;59.370;18.016;2023-04-28T07:30:20;101160.06;;;5.74;88.45
14295;BME280;7231;59.370;18.016;2023-04-28T07:32:54;101169.69;;;5.91;86.97
14295;BME280;7231;59.370;18.016;2023-04-28T07:35:22;101170.16;;;5.84;85.15
14295;BME280;7231;59.370;18.016;2023-04-28T07:37:50;101175.59;;;5.72;83.77
14295;BME280;7231;59.370;18.016;2023-04-28T07:40:18;101173.56;;;5.50;83.09
14295;BME280;7231;59.370;18.016;2023-04-28T07:42:46;101176.16;;;5.34;83.55
14295;BME280;7231;59.370;18.016;2023-04-28T07:45:16;101178.84;;;5.36;83.76
14295;BME280;7231;59.370;18.016;2023-04-28T07:47:44;101169.16;;;5.33;82.90
14295;BME280;7231;59.370;18.016;2023-04-28T07:50:12;101185.59;;;5.48;83.15
14295;BME280;7231;59.370;18.016;2023-04-28T07:52:40;101180.47;;;5.66;82.78
14295;BME280;7231;59.370;18.016;2023-04-28T07:55:08;101192.44;;;5.79;82.53
14295;BME280;7231;59.370;18.016;2023-04-28T07:57:36;101172.44;;;5.78;82.48
14295;BME280;7231;59.370;18.016;2023-04-28T08:00:05;101198.78;;;5.84;81.69
14295;BME280;7231;59.370;18.016;2023-04-28T08:02:35;101199.59;;;5.83;82.06
14295;BME280;7231;59.370;18.016;2023-04-28T08:05:03;101188.44;;;5.85;82.56
14295;BME280;7231;59.370;18.016;2023-04-28T08:07:33;101205.47;;;5.95;81.36
14295;BME280;7231;59.370;18.016;2023-04-28T08:10:01;101210.50;;;5.76;81.48
14295;BME280;7231;59.370;18.016;2023-04-28T08:12:29;101210.41;;;5.74;81.74
14295;BME280;7231;59.370;18.016;2023-04-28T08:14:58;101212.16;;;5.90;81.76
14295;BME280;7231;59.370;18.016;2023-04-28T08:17:26;101195.06;;;5.95;81.32
14295;BME280;7231;59.370;18.016;2023-04-28T08:19:55;101208.22;;;5.98;79.95
14295;BME280;7231;59.370;18.016;2023-04-28T08:22:24;101217.31;;;5.74;79.74
14295;BME280;7231;59.370;18.016;2023-04-28T08:24:52;101227.72;;;5.58;80.33
14295;BME280;7231;59.370;18.016;2023-04-28T08:27:20;101219.56;;;5.35;79.71
14295;BME280;7231;59.370;18.016;2023-04-28T08:29:49;101216.28;;;5.23;79.90
14295;BME280;7231;59.370;18.016;2023-04-28T08:32:17;101230.34;;;5.27;80.41
14295;BME280;7231;59.370;18.016;2023-04-28T08:34:45;101208.00;;;5.30;80.70
14295;BME280;7231;59.370;18.016;2023-04-28T08:37:14;101214.72;;;5.58;80.83
14295;BME280;7231;59.370;18.016;2023-04-28T08:39:42;101227.72;;;5.74;80.34
14295;BME280;7231;59.370;18.016;2023-04-28T08:42:11;101172.94;;;5.54;80.14
14295;BME280;7231;59.370;18.016;2023-04-28T08:44:39;101228.16;;;6.14;80.84
14295;BME280;7231;59.370;18.016;2023-04-28T08:47:11;101226.28;;;6.45;81.01
14295;BME280;7231;59.370;18.016;2023-04-28T08:49:40;101215.31;;;6.87;80.58
14295;BME280;7231;59.370;18.016;2023-04-28T08:52:10;101226.41;;;7.18;79.35
14295;BME280;7231;59.370;18.016;2023-04-28T08:54:40;101224.75;;;7.38;78.14
14295;BME280;7231;59.370;18.016;2023-04-28T08:57:09;101231.91;;;7.61;77.80
14295;BME280;7231;59.370;18.016;2023-04-28T08:59:38;101227.56;;;7.81;76.56
14295;BME280;7231;59.370;18.016;2023-04-28T09:02:07;101237.59;;;7.91;74.53
14295;BME280;7231;59.370;18.016;2023-04-28T09:04:36;101171.66;;;7.18;73.78
14295;BME280;7231;59.370;18.016;2023-04-28T09:07:09;101237.84;;;7.39;73.48
14295;BME280;7231;59.370;18.016;2023-04-28T09:09:39;101228.81;;;7.51;75.90
14295;BME280;7231;59.370;18.016;2023-04-28T09:12:07;101231.06;;;7.81;73.98
14295;BME280;7231;59.370;18.016;2023-04-28T09:14:37;101233.66;;;7.80;74.02
14295;BME280;7231;59.370;18.016;2023-04-28T09:17:09;101229.97;;;8.34;73.39
14295;BME280;7231;59.370;18.016;2023-04-28T09:19:38;101227.00;;;8.27;70.24
14295;BME280;7231;59.370;18.016;2023-04-28T09:22:08;101124.88;;;7.80;71.21
14295;BME280;7231;59.370;18.016;2023-04-28T09:24:53;101223.94;;;8.56;69.78
14295;BME280;7231;59.370;18.016;2023-04-28T09:27:26;101222.66;;;8.88;70.01
14295;BME280;7231;59.370;18.016;2023-04-28T09:29:54;101228.34;;;8.99;66.65
14295;BME280;7231;59.370;18.016;2023-04-28T09:32:23;101209.53;;;8.87;67.17
14295;BME280;7231;59.370;18.016;2023-04-28T09:34:54;101219.59;;;8.98;67.10
14295;BME280;7231;59.370;18.016;2023-04-28T09:37:24;101222.84;;;8.93;64.98
14295;BME280;7231;59.370;18.016;2023-04-28T09:39:54;101205.06;;;8.63;65.11
14295;BME280;7231;59.370;18.016;2023-04-28T09:42:32;101212.16;;;8.26;64.30
14295;BME280;7231;59.370;18.016;2023-04-28T09:45:01;101222.06;;;8.33;65.74
14295;BME280;7231;59.370;18.016;2023-04-28T09:47:30;101220.38;;;8.54;65.65
14295;BME280;7231;59.370;18.016;2023-04-28T09:50:02;101198.38;;;8.49;64.84
14295;BME280;7231;59.370;18.016;2023-04-28T09:52:32;101219.22;;;8.48;64.24
14295;BME280;7231;59.370;18.016;2023-04-28T09:55:03;101222.06;;;8.13;64.18
14295;BME280;7231;59.370;18.016;2023-04-28T09:57:33;101224.69;;;8.13;64.75
14295;BME280;7231;59.370;18.016;2023-04-28T10:00:03;101210.38;;;8.25;65.60
14295;BME280;7231;59.370;18.016;2023-04-28T10:02:34;101210.75;;;8.53;65.15
14295;BME280;7231;59.370;18.016;2023-04-28T10:05:05;101226.94;;;8.86;64.87
14295;BME280;7231;59.370;18.016;2023-04-28T10:07:36;101226.69;;;9.23;64.97
14295;BME280;7231;59.370;18.016;2023-04-28T10:10:07;101223.38;;;9.50;62.99
14295;BME280;7231;59.370;18.016;2023-04-28T10:12:36;101234.91;;;9.32;61.56
14295;BME280;7231;59.370;18.016;2023-04-28T10:15:06;101094.69;;;8.48;61.16
14295;BME280;7231;59.370;18.016;2023-04-28T10:17:37;101220.63;;;9.47;62.01
14295;BME280;7231;59.370;18.016;2023-04-28T10:20:07;101215.38;;;9.69;60.93
14295;BME280;7231;59.370;18.016;2023-04-28T10:22:49;101215.91;;;10.06;61.96
14295;BME280;7231;59.370;18.016;2023-04-28T10:25:26;101219.56;;;10.88;62.26
14295;BME280;7231;59.370;18.016;2023-04-28T10:27:57;101206.56;;;11.76;62.16
14295;BME280;7231;59.370;18.016;2023-04-28T10:30:26;101199.69;;;12.43;60.58
14295;BME280;7231;59.370;18.016;2023-04-28T10:33:21;101206.94;;;12.86;56.93
14295;BME280;7231;59.370;18.016;2023-04-28T10:35:50;101189.50;;;13.28;58.15
14295;BME280;7231;59.370;18.016;2023-04-28T10:38:19;101198.84;;;13.95;56.45
14295;BME280;7231;59.370;18.016;2023-04-28T10:40:50;101193.31;;;13.83;52.37
14295;BME280;7231;59.370;18.016;2023-04-28T10:43:32;101099.47;;;12.32;50.26
14295;BME280;7231;59.370;18.016;2023-04-28T10:46:05;101205.34;;;12.92;52.60
14295;BME280;7231;59.370;18.016;2023-04-28T10:48:57;101196.84;;;13.06;50.41
14295;BME280;7231;59.370;18.016;2023-04-28T10:51:28;101131.00;;;12.65;50.67
14295;BME280;7231;59.370;18.016;2023-04-28T10:54:16;101192.63;;;13.12;50.06
14295;BME280;7231;59.370;18.016;2023-04-28T10:57:19;101016.44;;;12.06;49.10
14295;BME280;7231;59.370;18.016;2023-04-28T10:59:49;101180.22;;;12.71;49.72
14295;BME280;7231;59.370;18.016;2023-04-28T11:02:47;101195.88;;;13.02;50.08
14295;BME280;7231;59.370;18.016;2023-04-28T11:05:17;101187.75;;;13.29;50.22
14295;BME280;7231;59.370;18.016;2023-04-28T11:11:19;101203.03;;;13.86;47.38
14295;BME280;7231;59.370;18.016;2023-04-28T11:13:49;101192.72;;;13.96;46.06
14295;BME280;7231;59.370;18.016;2023-04-28T11:16:20;101185.53;;;13.47;46.01
14295;BME280;7231;59.370;18.016;2023-04-28T11:18:57;101183.72;;;13.07;43.99
14295;BME280;7231;59.370;18.016;2023-04-28T11:21:29;101198.06;;;12.48;45.76
14295;BME280;7231;59.370;18.016;2023-04-28T11:23:58;101135.28;;;11.64;46.11
14295;BME280;7231;59.370;18.016;2023-04-28T11:26:27;101209.03;;;12.31;48.19
14295;BME280;7231;59.370;18.016;2023-04-28T11:28:57;101207.03;;;13.26;47.30
14295;BME280;7231;59.370;18.016;2023-04-28T11:31:27;101169.09;;;13.59;46.57
14295;BME280;7231;59.370;18.016;2023-04-28T11:34:01;101199.91;;;14.05;45.62
14295;BME280;7231;59.370;18.016;2023-04-28T11:36:32;101200.41;;;14.31;43.93
14295;BME280;7231;59.370;18.016;2023-04-28T11:39:02;101206.38;;;13.77;43.28
14295;BME280;7231;59.370;18.016;2023-04-28T11:41:33;101204.97;;;13.52;44.00
14295;BME280;7231;59.370;18.016;2023-04-28T11:44:10;101202.88;;;13.01;43.59
14295;BME280;7231;59.370;18.016;2023-04-28T11:46:45;101190.00;;;12.75;44.68
14295;BME280;7231;59.370;18.016;2023-04-28T11:49:17;101196.63;;;12.95;44.97
14295;BME280;7231;59.370;18.016;2023-04-28T11:51:45;101200.16;;;12.95;44.44
14295;BME280;7231;59.370;18.016;2023-04-28T11:54:19;101143.81;;;12.18;44.18
14295;BME280;7231;59.370;18.016;2023-04-28T11:56:48;101159.19;;;12.03;44.64
14295;BME280;7231;59.370;18.016;2023-04-28T11:59:18;101177.28;;;11.92;45.12
14295;BME280;7231;59.370;18.016;2023-04-28T12:01:56;101204.59;;;11.69;44.82
14295;BME280;7231;59.370;18.016;2023-04-28T12:04:29;101210.91;;;11.46;45.70
14295;BME280;7231;59.370;18.016;2023-04-28T12:07:03;101065.97;;;10.42;45.65
14295;BME280;7231;59.370;18.016;2023-04-28T12:09:32;101212.59;;;11.15;46.18
14295;BME280;7231;59.370;18.016;2023-04-28T12:12:02;101218.59;;;11.11;46.27
14295;BME280;7231;59.370;18.016;2023-04-28T12:14:32;101127.81;;;10.62;46.27
14295;BME280;7231;59.370;18.016;2023-04-28T12:17:23;101213.53;;;11.17;46.85
14295;BME280;7231;59.370;18.016;2023-04-28T12:19:52;101210.94;;;12.37;46.93
14295;BME280;7231;59.370;18.016;2023-04-28T12:22:20;101203.44;;;13.62;45.25
14295;BME280;7231;59.370;18.016;2023-04-28T12:25:02;101209.09;;;13.04;42.57
14295;BME280;7231;59.370;18.016;2023-04-28T12:27:30;101204.53;;;12.60;43.23
14295;BME280;7231;59.370;18.016;2023-04-28T12:30:00;101212.47;;;12.29;43.59
14295;BME280;7231;59.370;18.016;2023-04-28T12:32:37;101146.00;;;12.01;44.62
14295;BME280;7231;59.370;18.016;2023-04-28T12:35:07;101179.06;;;13.33;44.77
14295;BME280;7231;59.370;18.016;2023-04-28T12:37:35;101222.28;;;15.25;43.13
14295;BME280;7231;59.370;18.016;2023-04-28T12:40:05;101145.69;;;15.98;40.47
14295;BME280;7231;59.370;18.016;2023-04-28T12:42:33;101196.97;;;17.00;39.44
14295;BME280;7231;59.370;18.016;2023-04-28T12:45:03;101190.16;;;17.40;38.38
14295;BME280;7231;59.370;18.016;2023-04-28T12:47:32;101106.22;;;16.19;36.51
14295;BME280;7231;59.370;18.016;2023-04-28T12:50:00;101197.91;;;15.44;36.81
14295;BME280;7231;59.370;18.016;2023-04-28T12:52:28;101206.09;;;15.04;38.14
14295;BME280;7231;59.370;18.016;2023-04-28T12:54:59;101172.03;;;14.65;38.16
14295;BME280;7231;59.370;18.016;2023-04-28T12:57:27;101182.97;;;14.87;38.70
14295;BME280;7231;59.370;18.016;2023-04-28T12:59:56;101187.03;;;15.24;38.98
14295;BME280;7231;59.370;18.016;2023-04-28T13:02:25;101195.81;;;15.88;38.99
14295;BME280;7231;59.370;18.016;2023-04-28T13:04:55;101144.25;;;16.29;36.81
14295;BME280;7231;59.370;18.016;2023-04-28T13:07:23;101183.19;;;16.42;36.77
14295;BME280;7231;59.370;18.016;2023-04-28T13:09:51;101150.81;;;16.69;36.21
14295;BME280;7231;59.370;18.016;2023-04-28T13:12:19;101182.63;;;16.75;36.51
14295;BME280;7231;59.370;18.016;2023-04-28T13:14:47;101166.47;;;17.72;36.83